createdAt,value
2023-03-22T00:01:49.373Z,96829.56
2023-03-22T00:04:37.742Z,96831.44
2023-03-22T00:07:26.648Z,96841.38
2023-03-22T00:10:14.990Z,96835.44
2023-03-22T00:13:03.678Z,96833.47
2023-03-22T00:15:52.128Z,96835.69
2023-03-22T00:18:41.892Z,96830.00
2023-03-22T00:21:30.270Z,96826.91
2023-03-22T00:24:18.690Z,96822.75
2023-03-22T00:27:07.030Z,96821.06
2023-03-22T00:29:55.494Z,96824.28
2023-03-22T00:32:43.808Z,96824.81
2023-03-22T00:35:33.627Z,96822.13
2023-03-22T00:38:29.925Z,96817.91
2023-03-22T00:41:27.981Z,96813.19
2023-03-22T00:44:16.370Z,96814.16
2023-03-22T00:47:06.614Z,96822.56
2023-03-22T00:49:55.028Z,96813.78
2023-03-22T00:52:44.906Z,96810.13
2023-03-22T00:55:33.795Z,96806.94
2023-03-22T00:58:22.214Z,96807.59
2023-03-22T01:01:13.839Z,96796.94
2023-03-22T01:04:03.133Z,96801.97
2023-03-22T01:06:59.164Z,96795.66
2023-03-22T01:09:49.415Z,96794.00
2023-03-22T01:12:37.746Z,96798.88
2023-03-22T01:15:26.137Z,96790.97
2023-03-22T01:18:14.616Z,96787.03
2023-03-22T01:21:03.235Z,96791.97
2023-03-22T01:23:51.710Z,96793.22
2023-03-22T01:26:41.445Z,96790.91
2023-03-22T01:29:31.250Z,96796.03
2023-03-22T01:32:19.626Z,96792.16
2023-03-22T01:35:08.656Z,96777.81
2023-03-22T01:37:58.058Z,96780.13
2023-03-22T01:40:46.870Z,96777.31
2023-03-22T01:43:36.810Z,96776.34
2023-03-22T01:46:25.847Z,96769.00
2023-03-22T01:49:16.425Z,96767.81
2023-03-22T01:52:08.072Z,96767.81
2023-03-22T01:55:03.099Z,96758.91
2023-03-22T01:58:01.152Z,96752.41
2023-03-22T02:01:04.211Z,96760.69
2023-03-22T02:04:13.333Z,96758.13
2023-03-22T02:07:03.637Z,96764.72
2023-03-22T02:09:53.369Z,96764.97
2023-03-22T02:12:51.169Z,96763.19
2023-03-22T02:16:00.831Z,96753.22
2023-03-22T02:19:42.364Z,96756.88
2023-03-22T02:23:02.728Z,96753.75
2023-03-22T02:26:15.517Z,96751.00
2023-03-22T02:29:09.171Z,96743.63
2023-03-22T02:32:15.093Z,96758.03
2023-03-22T02:35:25.987Z,96754.25
2023-03-22T02:41:29.918Z,96763.47
2023-03-22T02:44:24.054Z,96753.25
2023-03-22T02:47:20.593Z,96742.97
2023-03-22T02:50:12.986Z,96746.66
2023-03-22T02:53:06.251Z,96752.25
2023-03-22T02:55:57.144Z,96759.28
2023-03-22T02:58:51.240Z,96752.09
2023-03-22T03:01:41.873Z,96744.41
2023-03-22T03:04:36.639Z,96742.19
2023-03-22T03:07:28.295Z,96744.13
2023-03-22T03:10:17.617Z,96747.31
2023-03-22T03:13:05.996Z,96764.97
2023-03-22T03:15:59.189Z,96761.06
2023-03-22T03:18:50.738Z,96758.88
2023-03-22T03:21:45.296Z,96756.88
2023-03-22T03:24:37.549Z,96756.88
2023-03-22T03:27:29.483Z,96764.69
2023-03-22T03:30:22.647Z,96759.78
2023-03-22T03:33:16.565Z,96752.09
2023-03-22T03:36:08.388Z,96746.09
2023-03-22T03:38:57.973Z,96744.94
2023-03-22T03:41:48.405Z,96745.78
2023-03-22T03:44:37.677Z,96740.44
2023-03-22T03:47:26.840Z,96746.91
2023-03-22T03:50:17.573Z,96750.50
2023-03-22T03:53:06.384Z,96743.53
2023-03-22T03:55:54.912Z,96749.50
2023-03-22T03:58:43.343Z,96750.06
2023-03-22T04:01:32.001Z,96748.25
2023-03-22T04:04:30.888Z,96745.41
2023-03-22T04:07:23.300Z,96736.81
2023-03-22T04:10:11.979Z,96730.94
2023-03-22T04:13:00.408Z,96736.19
2023-03-22T04:15:49.026Z,96740.38
2023-03-22T04:18:37.414Z,96741.75
2023-03-22T04:21:29.168Z,96749.78
2023-03-22T04:24:21.854Z,96753.44
2023-03-22T04:27:12.766Z,96757.91
2023-03-22T04:30:20.345Z,96754.69
2023-03-22T04:33:32.527Z,96752.94
2023-03-22T04:36:39.580Z,96739.09
2023-03-22T04:39:46.280Z,96747.47
2023-03-22T04:42:40.560Z,96742.88
2023-03-22T04:45:36.818Z,96729.19
2023-03-22T04:48:28.195Z,96745.25
2023-03-22T04:51:17.821Z,96742.84
2023-03-22T04:54:20.229Z,96732.75
2023-03-22T04:57:09.975Z,96738.59
2023-03-22T05:00:06.688Z,96731.59
2023-03-22T05:02:55.262Z,96727.78
2023-03-22T05:06:10.600Z,96731.75
2023-03-22T05:09:08.762Z,96736.84
2023-03-22T05:11:57.248Z,96738.72
2023-03-22T05:15:10.566Z,96743.31
2023-03-22T05:18:00.349Z,96742.31
2023-03-22T05:20:49.409Z,96746.41
2023-03-22T05:23:42.064Z,96756.06
2023-03-22T05:26:31.380Z,96755.31
2023-03-22T05:29:19.923Z,96753.81
2023-03-22T05:32:30.357Z,96754.19
2023-03-22T05:35:19.201Z,96759.97
2023-03-22T05:38:12.980Z,96762.63
2023-03-22T05:41:06.705Z,96763.75
2023-03-22T05:43:56.542Z,96759.97
2023-03-22T05:46:45.316Z,96750.31
2023-03-22T05:49:56.030Z,96760.97
2023-03-22T05:52:46.485Z,96765.72
2023-03-22T05:55:53.128Z,96767.56
2023-03-22T05:58:42.321Z,96759.25
2023-03-22T06:01:34.184Z,96766.19
2023-03-22T06:04:42.586Z,96764.25
2023-03-22T06:07:35.977Z,96771.56
2023-03-22T06:10:36.539Z,96771.06
2023-03-22T06:13:25.071Z,96762.59
2023-03-22T06:16:13.714Z,96767.28
2023-03-22T06:19:03.895Z,96764.50
2023-03-22T06:21:52.894Z,96760.59
2023-03-22T06:24:44.603Z,96761.28
2023-03-22T06:27:38.634Z,96761.47
2023-03-22T06:30:27.514Z,96755.56
2023-03-22T06:33:39.261Z,96761.44
2023-03-22T06:36:42.515Z,96766.72
2023-03-22T06:39:38.606Z,96763.72
2023-03-22T06:42:30.855Z,96769.88
2023-03-22T06:45:33.440Z,96776.22
2023-03-22T06:48:23.261Z,96771.34
2023-03-22T06:51:20.192Z,96775.03
2023-03-22T06:54:12.668Z,96778.16
2023-03-22T06:57:01.461Z,96783.53
2023-03-22T06:59:51.341Z,96784.22
2023-03-22T07:02:39.722Z,96783.81
2023-03-22T07:05:38.281Z,96783.94
2023-03-22T07:08:26.839Z,96773.34
2023-03-22T07:11:15.486Z,96775.91
2023-03-22T07:14:07.115Z,96776.84
2023-03-22T07:17:14.359Z,96779.41
2023-03-22T07:20:03.985Z,96780.34
2023-03-22T07:22:53.063Z,96784.31
2023-03-22T07:25:44.005Z,96775.84
2023-03-22T07:28:52.734Z,96778.06
2023-03-22T07:31:46.790Z,96770.94
2023-03-22T07:34:45.119Z,96771.75
2023-03-22T07:37:37.262Z,96776.34
2023-03-22T07:40:30.975Z,96772.41
2023-03-22T07:43:20.421Z,96773.25
2023-03-22T07:46:17.140Z,96781.00
2023-03-22T07:49:41.169Z,96772.69
2023-03-22T07:52:35.669Z,96774.13
2023-03-22T07:55:24.756Z,96764.56
2023-03-22T07:58:13.184Z,96756.00
2023-03-22T08:01:05.551Z,96754.41
2023-03-22T08:04:14.295Z,96761.94
2023-03-22T08:07:19.589Z,96759.88
2023-03-22T08:10:11.011Z,96761.34
2023-03-22T08:13:00.833Z,96764.72
2023-03-22T08:15:49.464Z,96764.47
2023-03-22T08:18:40.680Z,96766.63
2023-03-22T08:21:29.236Z,96774.34
2023-03-22T08:24:18.853Z,96769.72
2023-03-22T08:27:23.329Z,96776.25
2023-03-22T08:30:13.766Z,96780.34
2023-03-22T08:33:03.158Z,96773.91
2023-03-22T08:35:52.151Z,96767.81
2023-03-22T08:38:42.560Z,96768.03
2023-03-22T08:41:31.602Z,96773.34
2023-03-22T08:44:22.101Z,96766.25
2023-03-22T08:47:11.007Z,96779.78
2023-03-22T08:50:00.308Z,96763.03
2023-03-22T08:53:13.908Z,96768.59
2023-03-22T08:56:08.179Z,96773.06
2023-03-22T08:59:22.082Z,96757.06
2023-03-22T09:02:33.000Z,96755.34
2023-03-22T09:05:22.104Z,96755.38
2023-03-22T09:08:18.666Z,96755.69
2023-03-22T09:11:09.939Z,96758.69
2023-03-22T09:13:58.409Z,96749.53
2023-03-22T09:16:48.366Z,96758.88
2023-03-22T09:19:37.100Z,96743.66
2023-03-22T09:22:26.272Z,96746.66
2023-03-22T09:25:14.956Z,96748.22
2023-03-22T09:28:06.234Z,96742.00
2023-03-22T09:30:55.112Z,96742.16
2023-03-22T09:33:44.966Z,96737.19
2023-03-22T09:36:34.355Z,96727.16
2023-03-22T09:39:23.187Z,96731.28
2023-03-22T09:42:24.704Z,96726.81
2023-03-22T09:45:17.712Z,96720.03
2023-03-22T09:48:11.365Z,96720.81
2023-03-22T09:51:02.849Z,96710.41
2023-03-22T09:53:51.273Z,96716.31
2023-03-22T09:56:40.862Z,96702.72
2023-03-22T09:59:34.828Z,96702.72
2023-03-22T10:02:34.004Z,96702.63
2023-03-22T10:05:28.490Z,96700.09
2023-03-22T10:08:28.066Z,96698.09
2023-03-22T10:11:24.326Z,96688.16
2023-03-22T10:14:29.237Z,96681.31
2023-03-22T10:17:20.216Z,96693.19
2023-03-22T10:20:12.234Z,96686.66
2023-03-22T10:23:02.247Z,96684.78
2023-03-22T10:25:53.014Z,96683.38
2023-03-22T10:28:44.935Z,96678.63
2023-03-22T10:31:35.223Z,96677.31
2023-03-22T10:34:28.047Z,96684.66
2023-03-22T10:37:18.512Z,96679.78
2023-03-22T10:40:08.565Z,96682.06
2023-03-22T10:43:04.513Z,96670.81
2023-03-22T10:45:54.499Z,96669.56
2023-03-22T10:48:45.375Z,96679.50
2023-03-22T10:51:37.036Z,96674.75
2023-03-22T10:54:26.265Z,96670.34
2023-03-22T10:57:14.687Z,96660.31
2023-03-22T11:00:11.510Z,96666.63
2023-03-22T11:03:01.923Z,96671.81
2023-03-22T11:05:59.694Z,96673.38
2023-03-22T11:08:50.500Z,96674.53
2023-03-22T11:11:46.442Z,96667.72
2023-03-22T11:14:36.881Z,96673.94
2023-03-22T11:17:27.040Z,96661.84
2023-03-22T11:20:17.475Z,96655.41
2023-03-22T11:23:06.992Z,96658.38
2023-03-22T11:25:57.977Z,96655.75
2023-03-22T11:28:48.480Z,96647.84
2023-03-22T11:31:56.264Z,96643.41
2023-03-22T11:34:47.364Z,96646.69
2023-03-22T11:37:42.272Z,96645.31
2023-03-22T11:40:32.520Z,96635.34
2023-03-22T11:43:22.854Z,96633.78
2023-03-22T11:46:12.391Z,96627.84
2023-03-22T11:49:04.049Z,96624.50
2023-03-22T11:51:54.676Z,96620.53
2023-03-22T11:54:43.781Z,96620.75
2023-03-22T11:57:33.145Z,96607.13
2023-03-22T12:00:24.094Z,96612.84
2023-03-22T12:03:16.691Z,96601.19
2023-03-22T12:06:08.149Z,96600.50
2023-03-22T12:09:00.402Z,96601.50
2023-03-22T12:11:50.657Z,96593.78
2023-03-22T12:14:46.741Z,96584.59
2023-03-22T12:17:37.959Z,96581.63
2023-03-22T12:20:35.336Z,96576.59
2023-03-22T12:23:25.824Z,96570.28
2023-03-22T12:26:17.588Z,96568.09
2023-03-22T12:29:08.261Z,96563.88
2023-03-22T12:32:01.068Z,96549.47
2023-03-22T12:34:55.104Z,96554.28
2023-03-22T12:37:52.948Z,96553.22
2023-03-22T12:40:42.364Z,96558.03
2023-03-22T12:43:45.721Z,96555.09
2023-03-22T12:46:36.765Z,96553.13
2023-03-22T12:49:29.126Z,96545.75
2023-03-22T12:52:20.736Z,96543.25
2023-03-22T12:55:10.733Z,96538.91
2023-03-22T12:57:59.636Z,96532.03
2023-03-22T13:00:51.841Z,96532.91
2023-03-22T13:03:43.907Z,96528.91
2023-03-22T13:06:48.947Z,96529.28
2023-03-22T13:09:40.558Z,96518.00
2023-03-22T13:12:32.655Z,96525.94
2023-03-22T13:15:41.298Z,96518.47
2023-03-22T13:18:38.852Z,96522.03
2023-03-22T13:21:29.423Z,96521.28
2023-03-22T13:24:23.393Z,96506.34
2023-03-22T13:27:15.067Z,96507.78
2023-03-22T13:30:08.093Z,96504.34
2023-03-22T13:33:03.614Z,96503.50
2023-03-22T13:35:56.908Z,96500.22
2023-03-22T13:38:55.323Z,96499.81
2023-03-22T13:41:47.234Z,96500.16
2023-03-22T13:44:40.696Z,96500.22
2023-03-22T13:47:35.561Z,96496.91
2023-03-22T13:50:29.054Z,96482.38
2023-03-22T13:53:23.197Z,96489.88
2023-03-22T13:56:13.488Z,96493.38
2023-03-22T13:59:03.690Z,96481.56
2023-03-22T14:01:53.811Z,96479.81
2023-03-22T14:04:45.528Z,96482.72
2023-03-22T14:07:38.626Z,96478.63
2023-03-22T14:10:34.377Z,96480.25
2023-03-22T14:13:30.033Z,96475.81
2023-03-22T14:16:21.689Z,96474.28
2023-03-22T14:19:17.137Z,96458.59
